createdAt,value
2022-08-30T00:31:33.087Z,1010.13
2022-08-30T00:32:13.451Z,1010.12
2022-08-30T00:32:53.901Z,1010.12
2022-08-30T00:33:34.448Z,1010.12
2022-08-30T00:34:14.834Z,1010.11
2022-08-30T00:34:55.362Z,1010.05
2022-08-30T00:35:35.894Z,1010.08
2022-08-30T00:36:16.340Z,1010.07
2022-08-30T00:36:56.819Z,1010.01
2022-08-30T00:37:37.314Z,1010.04
2022-08-30T00:40:51.020Z,1010.08
2022-08-30T00:41:31.504Z,1010.1
2022-08-30T00:42:12.012Z,1010.13
2022-08-30T00:42:55.618Z,1010.14
2022-08-30T00:43:32.936Z,1010.15
2022-08-30T00:44:13.414Z,1010.13
2022-08-30T00:44:53.880Z,1010.15
2022-08-30T00:46:14.809Z,1010.21
2022-08-30T00:46:55.276Z,1010.15
2022-08-30T00:47:35.736Z,1010.14
2022-08-30T00:48:16.196Z,1010.13
2022-08-30T00:48:56.684Z,1010.14
2022-08-30T00:49:37.178Z,1010.14
2022-08-30T00:50:17.646Z,1010.15
2022-08-30T00:50:58.157Z,1010.15
2022-08-30T00:51:38.621Z,1010.15
2022-08-30T00:52:19.087Z,1010.15
2022-08-30T00:52:59.586Z,1010.16
2022-08-30T00:53:40.053Z,1010.16
2022-08-30T00:54:20.585Z,1010.17
2022-08-30T00:55:01.045Z,1010.18
2022-08-30T00:55:42.022Z,1010.17
2022-08-30T00:56:22.049Z,1010.21
2022-08-30T00:57:02.507Z,1010.14
2022-08-30T00:57:42.993Z,1010.14
2022-08-30T00:58:23.542Z,1010.16
2022-08-30T00:59:03.987Z,1010.16
2022-08-30T00:59:44.489Z,1010.14
2022-08-30T01:00:24.973Z,1010.14
2022-08-30T01:01:05.500Z,1010.15
2022-08-30T01:01:46.041Z,1010.14
2022-08-30T01:02:26.448Z,1010.2
2022-08-30T01:03:06.946Z,1010.17
2022-08-30T01:03:47.469Z,1010.18
2022-08-30T01:04:27.941Z,1010.2
2022-08-30T01:05:09.013Z,1010.2
2022-08-30T01:05:49.525Z,1010.25
2022-08-30T01:06:32.559Z,1010.21
2022-08-30T01:07:10.557Z,1010.25
2022-08-30T01:07:51.051Z,1010.27
2022-08-30T01:08:31.556Z,1010.28
2022-08-30T01:09:12.066Z,1010.26
2022-08-30T01:09:52.584Z,1010.3
2022-08-30T01:10:33.074Z,1010.29
2022-08-30T01:11:13.601Z,1010.29
2022-08-30T01:11:54.077Z,1010.3
2022-08-30T01:12:34.599Z,1010.27
2022-08-30T01:13:55.618Z,1010.29
2022-08-30T01:14:36.103Z,1010.31
2022-08-30T01:15:16.609Z,1010.29
2022-08-30T01:15:57.139Z,1010.28
2022-08-30T01:16:37.580Z,1010.3
2022-08-30T01:17:18.069Z,1010.29
2022-08-30T01:17:58.575Z,1010.29
2022-08-30T01:18:39.576Z,1010.32
2022-08-30T01:19:19.535Z,1010.3
2022-08-30T01:20:00.019Z,1010.26
2022-08-30T01:20:40.491Z,1010.32
2022-08-30T01:21:21.026Z,1010.28
2022-08-30T01:22:01.496Z,1010.28
2022-08-30T01:22:41.963Z,1010.28
2022-08-30T01:24:02.912Z,1010.3
2022-08-30T01:24:43.399Z,1010.28
2022-08-30T01:25:23.857Z,1010.3
2022-08-30T01:26:04.411Z,1010.3
2022-08-30T01:26:44.835Z,1010.3
2022-08-30T01:27:25.362Z,1010.26
2022-08-30T01:28:05.830Z,1010.29
2022-08-30T01:28:46.278Z,1010.3
2022-08-30T01:29:26.773Z,1010.32
2022-08-30T01:30:07.266Z,1010.31
2022-08-30T01:30:47.844Z,1010.34
2022-08-30T01:31:28.284Z,1010.34
2022-08-30T01:32:08.746Z,1010.36
2022-08-30T01:32:49.276Z,1010.33
2022-08-30T01:34:10.874Z,1010.36
2022-08-30T01:34:51.354Z,1010.34
2022-08-30T01:35:31.862Z,1010.35
2022-08-30T01:36:12.322Z,1010.38
2022-08-30T01:36:52.808Z,1010.3
2022-08-30T01:37:33.270Z,1010.33
2022-08-30T01:38:13.768Z,1010.34
2022-08-30T01:38:54.246Z,1010.38
2022-08-30T01:39:34.752Z,1010.35
2022-08-30T01:40:15.510Z,1010.35
2022-08-30T01:40:56.005Z,1010.32
2022-08-30T01:41:36.480Z,1010.34
2022-08-30T01:42:16.957Z,1010.33
2022-08-30T01:42:57.413Z,1010.35
2022-08-30T01:43:37.961Z,1010.3
2022-08-30T01:44:18.416Z,1010.31
2022-08-30T01:44:58.889Z,1010.35
2022-08-30T01:45:39.449Z,1010.32
2022-08-30T01:46:19.965Z,1010.31
2022-08-30T01:47:00.339Z,1010.34
2022-08-30T01:47:40.815Z,1010.32
2022-08-30T01:48:21.343Z,1010.32
2022-08-30T01:49:01.772Z,1010.36
2022-08-30T01:49:42.265Z,1010.37
2022-08-30T01:50:22.725Z,1010.39
2022-08-30T01:51:03.282Z,1010.36
2022-08-30T01:51:43.782Z,1010.37
2022-08-30T01:52:24.175Z,1010.34
2022-08-30T01:53:04.680Z,1010.34
2022-08-30T01:53:45.163Z,1010.35
2022-08-30T01:54:27.483Z,1010.32
2022-08-30T01:55:06.133Z,1010.34
2022-08-30T01:55:46.600Z,1010.32
2022-08-30T01:56:27.106Z,1010.32
2022-08-30T01:57:07.571Z,1010.3
2022-08-30T01:57:48.072Z,1010.33
2022-08-30T01:58:28.547Z,1010.34
2022-08-30T01:59:09.077Z,1010.32
2022-08-30T01:59:49.530Z,1010.36
2022-08-30T02:00:29.997Z,1010.33
2022-08-30T02:01:10.599Z,1010.3
2022-08-30T02:01:51.024Z,1010.33
2022-08-30T02:02:31.444Z,1010.32
2022-08-30T02:03:11.891Z,1010.34
2022-08-30T02:03:52.434Z,1010.34
2022-08-30T02:04:32.882Z,1010.3
2022-08-30T02:05:13.331Z,1010.32
2022-08-30T02:05:53.877Z,1010.32
2022-08-30T02:06:34.296Z,1010.3
2022-08-30T02:07:14.790Z,1010.32
2022-08-30T02:07:55.330Z,1010.33
2022-08-30T02:08:35.797Z,1010.31
2022-08-30T02:09:16.319Z,1010.29
2022-08-30T02:09:56.776Z,1010.29
2022-08-30T02:10:37.221Z,1010.32
2022-08-30T02:11:17.698Z,1010.31
2022-08-30T02:11:58.163Z,1010.31
2022-08-30T02:12:38.650Z,1010.33
2022-08-30T02:13:19.179Z,1010.29
2022-08-30T02:13:59.624Z,1010.33
2022-08-30T02:14:40.148Z,1010.3
2022-08-30T02:15:20.719Z,1010.3
2022-08-30T02:16:01.161Z,1010.3
2022-08-30T02:16:41.727Z,1010.31
2022-08-30T02:17:22.211Z,1010.34
2022-08-30T02:18:02.682Z,1010.31
2022-08-30T02:18:43.189Z,1010.36
2022-08-30T02:19:23.721Z,1010.34
2022-08-30T02:20:04.232Z,1010.34
2022-08-30T02:20:44.696Z,1010.36
2022-08-30T02:21:25.183Z,1010.34
2022-08-30T02:22:05.729Z,1010.33
2022-08-30T02:22:49.137Z,1010.33
2022-08-30T02:23:26.631Z,1010.32
2022-08-30T02:24:07.099Z,1010.33
2022-08-30T02:24:47.590Z,1010.29
2022-08-30T02:25:28.070Z,1010.31
2022-08-30T02:26:08.540Z,1010.31
2022-08-30T02:26:49.049Z,1010.27
2022-08-30T02:27:29.581Z,1010.27
2022-08-30T02:28:10.079Z,1010.29
2022-08-30T02:28:50.574Z,1010.29
2022-08-30T02:29:31.051Z,1010.25
2022-08-30T02:30:11.516Z,1010.23
2022-08-30T02:30:52.046Z,1010.27
2022-08-30T02:31:32.543Z,1010.27
2022-08-30T02:32:12.949Z,1010.27
2022-08-30T02:32:53.458Z,1010.23
2022-08-30T02:33:33.966Z,1010.24
2022-08-30T02:34:14.464Z,1010.23
2022-08-30T02:34:54.942Z,1010.25
2022-08-30T02:35:35.500Z,1010.25
2022-08-30T02:36:15.964Z,1010.29
2022-08-30T02:36:56.457Z,1010.26
2022-08-30T02:37:36.994Z,1010.24
2022-08-30T02:38:18.938Z,1010.25
2022-08-30T02:38:57.920Z,1010.21
2022-08-30T02:39:38.408Z,1010.27
2022-08-30T02:40:18.975Z,1010.23
2022-08-30T02:40:59.349Z,1010.23
2022-08-30T02:41:39.912Z,1010.19
2022-08-30T02:42:20.395Z,1010.21
2022-08-30T02:43:00.869Z,1010.16
2022-08-30T02:43:41.353Z,1010.14
2022-08-30T02:44:21.847Z,1010.17
2022-08-30T02:45:02.310Z,1010.12
2022-08-30T02:45:42.859Z,1010.1
2022-08-30T02:46:23.409Z,1010.1
2022-08-30T02:47:03.793Z,1010.09
2022-08-30T02:47:46.910Z,1010.05
2022-08-30T02:48:24.757Z,1010.05
2022-08-30T02:49:45.750Z,1010.01
2022-08-30T02:50:26.213Z,1009.98
2022-08-30T02:51:06.699Z,1010.02
2022-08-30T02:51:47.631Z,1009.97
2022-08-30T02:52:28.647Z,1009.96
2022-08-30T02:53:08.858Z,1010
2022-08-30T02:53:49.209Z,1010.01
2022-08-30T02:54:29.660Z,1010
2022-08-30T02:55:10.136Z,1010.04
2022-08-30T02:55:50.606Z,1009.98
2022-08-30T02:56:31.107Z,1010.02
2022-08-30T02:57:19.898Z,1010.04
2022-08-30T02:57:52.112Z,1010.01
2022-08-30T02:58:32.543Z,1010.03
2022-08-30T02:59:53.495Z,1010.01
2022-08-30T03:00:33.985Z,1010.05
2022-08-30T03:01:14.521Z,1010.04
2022-08-30T03:01:54.997Z,1010.03
2022-08-30T03:02:35.486Z,1010.05
2022-08-30T03:03:16.230Z,1010.03
2022-08-30T03:03:56.434Z,1010.05
2022-08-30T03:04:36.901Z,1010.09
2022-08-30T03:05:17.367Z,1010.12
2022-08-30T03:05:57.857Z,1010.07
2022-08-30T03:06:38.409Z,1010.03
2022-08-30T03:07:18.818Z,1010.06
2022-08-30T03:07:59.280Z,1010.02
2022-08-30T03:08:39.813Z,1010.06
2022-08-30T03:09:20.311Z,1010.03
2022-08-30T03:10:00.814Z,1010.03
2022-08-30T03:10:41.286Z,1010.02
2022-08-30T03:11:21.778Z,1010
2022-08-30T03:12:02.218Z,1010
2022-08-30T03:12:42.723Z,1010.02
2022-08-30T03:13:23.259Z,1010
2022-08-30T03:14:03.724Z,1010.02
2022-08-30T03:14:44.200Z,1010.02
2022-08-30T03:15:24.674Z,1010
2022-08-30T03:16:05.226Z,1010
2022-08-30T03:16:45.726Z,1010.01
2022-08-30T03:17:26.178Z,1009.99
2022-08-30T03:18:06.664Z,1010.02
2022-08-30T03:18:47.168Z,1010
2022-08-30T03:19:27.651Z,1010
2022-08-30T03:20:08.164Z,1010
2022-08-30T03:20:54.039Z,1009.99
2022-08-30T03:21:29.211Z,1010
2022-08-30T03:22:09.696Z,1010.03
2022-08-30T03:22:50.102Z,1010.01
2022-08-30T03:23:30.607Z,1010.02
2022-08-30T03:24:51.546Z,1010.04
2022-08-30T03:25:32.079Z,1009.99
2022-08-30T03:26:12.506Z,1010.01
2022-08-30T03:26:52.978Z,1010
2022-08-30T03:27:33.448Z,1009.98
2022-08-30T03:28:13.918Z,1010.03
2022-08-30T03:28:54.415Z,1010.06
2022-08-30T03:29:34.865Z,1010.07
2022-08-30T03:30:15.344Z,1010.08
2022-08-30T03:30:55.836Z,1010.09
2022-08-30T03:31:37.768Z,1010.06
2022-08-30T03:32:16.841Z,1010.1
2022-08-30T03:32:57.342Z,1010.09
2022-08-30T03:33:37.882Z,1010.1
2022-08-30T03:34:18.293Z,1010.1
2022-08-30T03:37:17.446Z,1010.14
2022-08-30T03:37:57.899Z,1010.1
2022-08-30T03:38:38.367Z,1010.12
2022-08-30T03:39:18.786Z,1010.1
2022-08-30T03:39:59.319Z,1010.08
2022-08-30T03:40:39.794Z,1010.09
2022-08-30T03:41:20.246Z,1010.08
2022-08-30T03:42:00.768Z,1010.11
2022-08-30T03:42:41.316Z,1010.1
2022-08-30T03:43:21.744Z,1010.06
2022-08-30T03:44:02.212Z,1010.04
2022-08-30T03:44:42.698Z,1010
2022-08-30T03:45:23.149Z,1009.98
2022-08-30T03:46:03.781Z,1010.01
2022-08-30T03:46:44.206Z,1010
2022-08-30T03:47:24.695Z,1009.98
2022-08-30T03:48:05.226Z,1009.98
2022-08-30T03:48:45.683Z,1010.02
2022-08-30T03:49:26.174Z,1010.01
2022-08-30T03:50:06.649Z,1010.05
2022-08-30T03:50:47.098Z,1010.06
2022-08-30T03:51:27.625Z,1010.06
2022-08-30T03:52:08.121Z,1010.08
2022-08-30T03:52:48.579Z,1010.09
2022-08-30T03:53:29.101Z,1010.13
2022-08-30T03:54:09.633Z,1010.09
2022-08-30T03:54:50.080Z,1010.09
2022-08-30T03:55:30.561Z,1010.09
2022-08-30T03:56:11.100Z,1010.12
2022-08-30T03:57:31.967Z,1010.08
2022-08-30T03:58:12.399Z,1010.07
2022-08-30T03:58:52.899Z,1010.07
2022-08-30T03:59:33.362Z,1010.05
2022-08-30T04:00:13.866Z,1010.11
2022-08-30T04:00:54.451Z,1010.05
2022-08-30T04:01:34.866Z,1010.07
2022-08-30T04:02:15.379Z,1010.09
2022-08-30T04:02:55.787Z,1010.07
2022-08-30T04:03:36.371Z,1010.05
2022-08-30T04:04:57.350Z,1010.06
2022-08-30T04:05:37.873Z,1010.04
2022-08-30T04:06:18.311Z,1010.09
2022-08-30T04:06:58.779Z,1010.05
2022-08-30T04:07:39.263Z,1010.1
2022-08-30T04:08:19.730Z,1010.06
2022-08-30T04:09:00.234Z,1010.12
2022-08-30T04:09:40.745Z,1010.12
2022-08-30T04:10:21.249Z,1010.12
2022-08-30T04:11:01.685Z,1010.12
2022-08-30T04:11:42.257Z,1010.12
2022-08-30T04:12:23.027Z,1010.12
2022-08-30T04:13:03.194Z,1010.11
2022-08-30T04:13:43.692Z,1010.12
2022-08-30T04:14:24.140Z,1010.1
2022-08-30T04:15:04.715Z,1010.11
2022-08-30T04:15:45.228Z,1010.09
2022-08-30T04:16:25.833Z,1010.1
2022-08-30T04:17:06.170Z,1010.11
2022-08-30T04:17:46.642Z,1010.1
2022-08-30T04:18:27.136Z,1010.1
2022-08-30T04:19:07.610Z,1010.13
2022-08-30T04:19:48.100Z,1010.12
2022-08-30T04:20:28.616Z,1010.09
2022-08-30T04:21:12.407Z,1010.1
2022-08-30T04:21:49.595Z,1010.11
2022-08-30T04:22:30.081Z,1010.09
2022-08-30T04:23:10.571Z,1010.09
2022-08-30T04:23:51.135Z,1010.1
2022-08-30T04:24:31.617Z,1010.07
2022-08-30T04:25:13.067Z,1010.07
2022-08-30T04:25:52.599Z,1010.07
2022-08-30T04:26:33.133Z,1010.05
2022-08-30T04:27:13.701Z,1010.08
2022-08-30T04:27:54.132Z,1010.1
2022-08-30T04:28:34.613Z,1010.11
2022-08-30T04:29:15.065Z,1010.1
2022-08-30T04:29:56.250Z,1010.13
2022-08-30T04:30:36.042Z,1010.11
2022-08-30T04:31:16.566Z,1010.12
2022-08-30T04:31:57.061Z,1010.15
2022-08-30T04:32:37.450Z,1010.13
2022-08-30T04:33:18.107Z,1010.12
2022-08-30T04:33:58.421Z,1010.12
2022-08-30T04:35:19.407Z,1010.14
2022-08-30T04:35:59.873Z,1010.15
2022-08-30T04:36:40.389Z,1010.17
2022-08-30T04:37:20.845Z,1010.16
2022-08-30T04:38:01.274Z,1010.17
2022-08-30T04:38:41.733Z,1010.14
2022-08-30T04:39:22.296Z,1010.14
2022-08-30T04:40:02.822Z,1010.18
2022-08-30T04:40:43.349Z,1010.14
2022-08-30T04:41:23.830Z,1010.15
2022-08-30T04:42:04.327Z,1010.19
2022-08-30T04:42:44.824Z,1010.18
2022-08-30T04:43:25.258Z,1010.21
2022-08-30T04:44:05.793Z,1010.2
2022-08-30T04:44:46.245Z,1010.23
2022-08-30T04:45:26.734Z,1010.2
2022-08-30T04:46:07.332Z,1010.22
2022-08-30T04:46:47.723Z,1010.22
2022-08-30T04:47:28.272Z,1010.25
2022-08-30T04:48:08.834Z,1010.26
2022-08-30T04:48:49.343Z,1010.24
2022-08-30T04:49:29.809Z,1010.24
2022-08-30T04:50:10.263Z,1010.21
2022-08-30T04:50:50.810Z,1010.26
2022-08-30T04:51:31.225Z,1010.26
2022-08-30T04:52:11.732Z,1010.28
2022-08-30T04:52:52.193Z,1010.26
2022-08-30T04:53:32.680Z,1010.25
2022-08-30T04:54:13.281Z,1010.28
2022-08-30T04:54:53.749Z,1010.31
2022-08-30T04:55:34.147Z,1010.27
2022-08-30T04:56:14.685Z,1010.31
2022-08-30T04:56:55.128Z,1010.3
2022-08-30T04:57:35.597Z,1010.29
2022-08-30T04:58:16.294Z,1010.29
2022-08-30T04:58:56.554Z,1010.3
2022-08-30T04:59:37.125Z,1010.31
2022-08-30T05:00:17.603Z,1010.34
2022-08-30T05:00:58.104Z,1010.3
2022-08-30T05:01:45.153Z,1010.34
2022-08-30T05:02:59.589Z,1010.32
2022-08-30T05:03:40.141Z,1010.32
2022-08-30T05:04:20.604Z,1010.31
2022-08-30T05:05:01.164Z,1010.35
2022-08-30T05:05:41.841Z,1010.34
2022-08-30T05:06:22.494Z,1010.36
2022-08-30T05:07:02.780Z,1010.35
2022-08-30T05:07:43.280Z,1010.39
2022-08-30T05:08:24.851Z,1010.35
2022-08-30T05:09:04.435Z,1010.37
2022-08-30T05:09:44.828Z,1010.33
2022-08-30T05:10:25.510Z,1010.37
2022-08-30T05:11:06.025Z,1010.33
2022-08-30T05:11:46.569Z,1010.33
2022-08-30T05:12:27.007Z,1010.3
2022-08-30T05:13:07.462Z,1010.33
2022-08-30T05:13:47.937Z,1010.34
2022-08-30T05:14:28.497Z,1010.36
2022-08-30T05:15:08.928Z,1010.33
2022-08-30T05:15:49.505Z,1010.34
2022-08-30T05:16:29.998Z,1010.38
2022-08-30T05:17:10.424Z,1010.33
2022-08-30T05:18:31.516Z,1010.4
2022-08-30T05:19:12.023Z,1010.41
2022-08-30T05:19:52.454Z,1010.43
2022-08-30T05:20:33.082Z,1010.44
2022-08-30T05:21:13.627Z,1010.45
2022-08-30T05:21:54.117Z,1010.41
2022-08-30T05:22:34.645Z,1010.5
2022-08-30T05:23:15.201Z,1010.47
2022-08-30T05:23:55.756Z,1010.47
2022-08-30T05:24:36.180Z,1010.51
2022-08-30T05:25:57.229Z,1010.58
2022-08-30T05:26:37.749Z,1010.56
2022-08-30T05:27:18.223Z,1010.57
2022-08-30T05:27:58.752Z,1010.52
2022-08-30T05:28:39.289Z,1010.49
2022-08-30T05:29:19.866Z,1010.54
2022-08-30T05:30:00.520Z,1010.52
2022-08-30T05:30:40.970Z,1010.53
2022-08-30T05:31:21.659Z,1010.54
2022-08-30T05:32:02.269Z,1010.55
2022-08-30T05:32:43.759Z,1010.54
2022-08-30T05:33:24.323Z,1010.57
2022-08-30T05:34:04.817Z,1010.6
2022-08-30T05:34:45.297Z,1010.63
2022-08-30T05:35:26.084Z,1010.62
2022-08-30T05:36:06.514Z,1010.62
2022-08-30T05:36:47.034Z,1010.61
2022-08-30T05:37:27.482Z,1010.63
2022-08-30T05:38:07.929Z,1010.61
2022-08-30T05:38:48.467Z,1010.63
2022-08-30T05:39:29.009Z,1010.63
2022-08-30T05:40:11.063Z,1010.62
2022-08-30T05:40:50.109Z,1010.63
2022-08-30T05:41:30.625Z,1010.61
2022-08-30T05:42:11.166Z,1010.62
2022-08-30T05:42:51.719Z,1010.64
2022-08-30T05:43:32.371Z,1010.58
2022-08-30T05:44:12.890Z,1010.58
2022-08-30T05:44:53.475Z,1010.57
2022-08-30T05:45:34.082Z,1010.53
2022-08-30T05:46:14.765Z,1010.6
2022-08-30T05:46:55.120Z,1010.58
2022-08-30T05:47:35.744Z,1010.54
2022-08-30T05:48:16.592Z,1010.57
2022-08-30T05:48:57.079Z,1010.63
2022-08-30T05:51:56.169Z,1010.64
2022-08-30T05:52:36.910Z,1010.65
2022-08-30T06:32:10.863Z,1010.61
2022-08-30T06:32:51.517Z,1010.63
2022-08-30T06:33:32.097Z,1010.62
2022-08-30T06:34:12.528Z,1010.72
2022-08-30T06:36:12.105Z,1010.65
2022-08-30T06:36:52.765Z,1010.65
2022-08-30T06:37:33.550Z,1010.63
2022-08-30T06:38:15.060Z,1010.65
2022-08-30T06:38:55.906Z,1010.67
2022-08-30T06:39:38.539Z,1010.66
2022-08-30T06:40:20.241Z,1010.66
2022-08-30T06:41:44.205Z,1010.69
2022-08-30T06:42:25.058Z,1010.67
2022-08-30T06:43:06.218Z,1010.65
2022-08-30T06:43:49.167Z,1010.66
2022-08-30T06:44:29.485Z,1010.72
2022-08-30T06:46:42.898Z,1010.68
2022-08-30T06:47:23.724Z,1010.66
2022-08-30T06:48:04.238Z,1010.63
2022-08-30T06:48:46.340Z,1010.66
2022-08-30T06:49:25.310Z,1010.64
2022-08-30T06:51:59.857Z,1010.69
2022-08-30T06:52:43.557Z,1010.67
2022-08-30T06:53:24.340Z,1010.65
2022-08-30T06:54:05.096Z,1010.69
2022-08-30T06:54:46.613Z,1010.69
2022-08-30T06:55:28.118Z,1010.67
2022-08-30T06:56:57.978Z,1010.7
2022-08-30T06:57:29.899Z,1010.67
2022-08-30T06:58:11.243Z,1010.67
2022-08-30T06:58:51.844Z,1010.7
2022-08-30T06:59:35.316Z,1010.72
2022-08-30T07:00:16.384Z,1010.69
2022-08-30T07:00:56.918Z,1010.73
2022-08-30T07:01:39.466Z,1010.71
2022-08-30T07:02:20.073Z,1010.68
2022-08-30T07:03:01.360Z,1010.68
2022-08-30T07:04:22.379Z,1010.73
2022-08-30T07:05:02.893Z,1010.74
2022-08-30T07:05:46.014Z,1010.72
2022-08-30T07:08:45.088Z,1010.68
2022-08-30T07:09:26.282Z,1010.7
2022-08-30T07:10:06.726Z,1010.69
2022-08-30T07:10:47.489Z,1010.74
2022-08-30T07:11:28.445Z,1010.7
2022-08-30T07:12:08.809Z,1010.72
2022-08-30T07:12:50.054Z,1010.73
2022-08-30T07:13:31.318Z,1010.75
2022-08-30T07:14:15.266Z,1010.71
2022-08-30T07:14:57.228Z,1010.67
2022-08-30T07:15:42.598Z,1010.75
2022-08-30T07:17:25.716Z,1010.75
2022-08-30T07:18:06.240Z,1010.73
2022-08-30T07:18:46.906Z,1010.72
2022-08-30T07:19:27.605Z,1010.74
2022-08-30T07:20:08.354Z,1010.73
2022-08-30T07:20:49.094Z,1010.72
2022-08-30T07:21:29.520Z,1010.75
2022-08-30T07:22:10.800Z,1010.77
2022-08-30T07:22:51.053Z,1010.74
2022-08-30T07:23:31.583Z,1010.77
2022-08-30T07:24:12.824Z,1010.8
2022-08-30T07:24:53.555Z,1010.81
2022-08-30T07:25:33.958Z,1010.81
2022-08-30T07:26:14.653Z,1010.81
2022-08-30T07:27:35.948Z,1010.79
2022-08-30T07:28:18.109Z,1010.82
2022-08-30T07:28:58.669Z,1010.78
2022-08-30T07:29:39.178Z,1010.78
2022-08-30T07:30:20.605Z,1010.77
2022-08-30T07:31:02.133Z,1010.74
2022-08-30T07:31:42.781Z,1010.75
2022-08-30T07:32:23.908Z,1010.75
2022-08-30T07:33:04.726Z,1010.78
2022-08-30T07:33:45.299Z,1010.76
2022-08-30T07:35:06.638Z,1010.79
2022-08-30T07:35:47.550Z,1010.78
2022-08-30T07:36:27.927Z,1010.78
2022-08-30T07:39:47.225Z,1010.86
2022-08-30T07:40:25.551Z,1010.89
2022-08-30T07:41:06.508Z,1010.92
2022-08-30T07:41:47.861Z,1010.88
2022-08-30T07:42:30.320Z,1010.88
2022-08-30T07:43:11.870Z,1010.91
2022-08-30T07:43:54.252Z,1010.92
2022-08-30T07:44:36.055Z,1010.95
2022-08-30T07:45:19.084Z,1010.94
2022-08-30T07:46:00.704Z,1010.93
2022-08-30T07:46:55.651Z,1010.93
2022-08-30T07:47:36.722Z,1010.89
2022-08-30T07:48:18.857Z,1010.94
2022-08-30T07:49:00.065Z,1010.95
2022-08-30T07:49:41.721Z,1010.92
2022-08-30T07:50:23.980Z,1010.93
2022-08-30T07:53:46.693Z,1010.89
2022-08-30T07:54:28.469Z,1010.88
2022-08-30T07:55:09.561Z,1010.89
2022-08-30T07:55:50.964Z,1010.91
2022-08-30T07:56:34.824Z,1010.9
2022-08-30T07:57:16.225Z,1010.91
2022-08-30T07:57:57.766Z,1010.92
2022-08-30T08:04:18.781Z,1010.91
2022-08-30T08:07:14.653Z,1010.96
2022-08-30T08:07:55.641Z,1010.99
2022-08-30T08:08:37.389Z,1011
2022-08-30T08:09:18.734Z,1010.98
2022-08-30T08:09:59.965Z,1010.97
2022-08-30T08:13:00.072Z,1010.96
2022-08-30T08:13:45.259Z,1010.94
2022-08-30T08:14:21.617Z,1010.96
2022-08-30T08:15:03.085Z,1010.97
2022-08-30T08:15:43.369Z,1010.95
2022-08-30T08:16:26.390Z,1010.93
2022-08-30T08:17:07.023Z,1010.95
2022-08-30T08:17:47.903Z,1010.95
2022-08-30T08:18:29.145Z,1010.96
2022-08-30T08:19:11.988Z,1010.97
2022-08-30T08:19:52.649Z,1010.94
2022-08-30T08:20:33.317Z,1010.92
2022-08-30T08:21:13.943Z,1010.95
2022-08-30T08:22:04.050Z,1010.95
2022-08-30T08:22:39.338Z,1010.95
2022-08-30T08:23:16.040Z,1010.94
2022-08-30T08:23:57.599Z,1010.92
2022-08-30T08:24:39.110Z,1010.9
2022-08-30T08:25:20.041Z,1010.94
2022-08-30T08:26:01.226Z,1010.88
2022-08-30T08:26:45.299Z,1010.9
2022-08-30T08:27:23.155Z,1010.91
2022-08-30T08:28:04.337Z,1010.93
2022-08-30T08:28:45.347Z,1010.94
2022-08-30T08:29:26.268Z,1010.88
2022-08-30T08:30:08.221Z,1010.87
2022-08-30T08:30:49.063Z,1010.89
2022-08-30T08:31:33.128Z,1010.89
2022-08-30T08:32:51.607Z,1010.87
2022-08-30T08:33:32.121Z,1010.88
2022-08-30T08:34:12.613Z,1010.86
2022-08-30T08:34:53.245Z,1010.86
2022-08-30T08:35:34.028Z,1010.84
2022-08-30T08:36:15.587Z,1010.78
2022-08-30T08:36:56.447Z,1010.85
2022-08-30T08:37:38.357Z,1010.82
2022-08-30T08:40:36.590Z,1010.82
2022-08-30T08:41:17.102Z,1010.84
2022-08-30T08:41:59.196Z,1010.86
2022-08-30T08:42:39.827Z,1010.85
2022-08-30T08:43:22.579Z,1010.87
2022-08-30T08:44:03.921Z,1010.87
2022-08-30T08:44:44.507Z,1010.91
2022-08-30T08:45:25.254Z,1010.86
2022-08-30T08:46:06.796Z,1010.85
2022-08-30T08:46:47.378Z,1010.88
2022-08-30T08:47:28.350Z,1010.85
2022-08-30T08:48:10.257Z,1010.86
2022-08-30T08:48:59.830Z,1010.89
2022-08-30T08:49:31.840Z,1010.86
2022-08-30T08:50:12.186Z,1010.84
2022-08-30T08:53:16.729Z,1010.82
2022-08-30T08:53:55.040Z,1010.87
2022-08-30T08:54:36.000Z,1010.87
2022-08-30T08:55:16.505Z,1010.86
2022-08-30T08:55:57.661Z,1010.85
2022-08-30T08:56:40.148Z,1010.85
2022-08-30T08:57:24.108Z,1010.83
2022-08-30T08:58:01.355Z,1010.81
2022-08-30T08:58:43.346Z,1010.8
2022-08-30T08:59:24.392Z,1010.8
2022-08-30T09:00:05.423Z,1010.78
2022-08-30T09:00:45.805Z,1010.77
2022-08-30T09:01:26.970Z,1010.76
2022-08-30T09:02:07.758Z,1010.76
2022-08-30T09:04:12.026Z,1010.73
2022-08-30T09:04:52.892Z,1010.72
2022-08-30T09:05:33.358Z,1010.73
2022-08-30T09:06:14.220Z,1010.75
2022-08-30T09:06:55.174Z,1010.71
2022-08-30T09:11:27.270Z,1010.75
2022-08-30T09:12:09.018Z,1010.74
2022-08-30T09:12:54.026Z,1010.78
2022-08-30T09:13:34.102Z,1010.78
2022-08-30T09:14:15.245Z,1010.74
2022-08-30T09:14:57.421Z,1010.75
2022-08-30T09:15:38.848Z,1010.76
2022-08-30T09:16:22.456Z,1010.74
2022-08-30T09:17:02.547Z,1010.75
2022-08-30T09:17:42.995Z,1010.75
2022-08-30T09:18:24.086Z,1010.74
2022-08-30T09:19:05.276Z,1010.74
2022-08-30T09:19:47.003Z,1010.76
2022-08-30T09:23:17.619Z,1010.69
2022-08-30T09:23:57.463Z,1010.67
2022-08-30T09:24:38.539Z,1010.66
2022-08-30T09:25:22.200Z,1010.67
2022-08-30T09:26:03.128Z,1010.64
2022-08-30T09:26:44.176Z,1010.67
2022-08-30T09:27:28.275Z,1010.67
2022-08-30T09:28:09.649Z,1010.64
2022-08-30T09:28:51.648Z,1010.65
2022-08-30T09:29:32.707Z,1010.64
2022-08-30T09:30:17.082Z,1010.66
2022-08-30T09:30:57.026Z,1010.63
2022-08-30T09:33:57.138Z,1010.65
2022-08-30T09:34:37.737Z,1010.63
2022-08-30T09:35:18.719Z,1010.67
2022-08-30T09:35:59.701Z,1010.64
2022-08-30T09:36:40.787Z,1010.71
2022-08-30T09:37:24.399Z,1010.7
2022-08-30T09:38:06.995Z,1010.7
2022-08-30T09:40:07.438Z,1010.69
2022-08-30T09:40:48.456Z,1010.67
2022-08-30T09:41:29.570Z,1010.68
2022-08-30T09:42:10.017Z,1010.68
2022-08-30T09:42:51.935Z,1010.67
2022-08-30T09:43:33.062Z,1010.65
2022-08-30T09:44:13.847Z,1010.67
2022-08-30T09:44:54.358Z,1010.67
2022-08-30T09:45:35.599Z,1010.63
2022-08-30T09:46:16.675Z,1010.66
2022-08-30T09:46:57.651Z,1010.62
2022-08-30T09:47:38.561Z,1010.66
2022-08-30T09:48:19.233Z,1010.65
2022-08-30T09:48:59.860Z,1010.62
2022-08-30T09:49:40.879Z,1010.62
2022-08-30T09:50:21.657Z,1010.63
2022-08-30T09:51:02.318Z,1010.62
2022-08-30T09:51:43.027Z,1010.58
2022-08-30T09:52:23.636Z,1010.62
2022-08-30T09:53:04.268Z,1010.6
2022-08-30T09:54:01.164Z,1010.62
2022-08-30T09:54:25.585Z,1010.63
2022-08-30T09:55:07.055Z,1010.61
2022-08-30T09:55:47.447Z,1010.61
2022-08-30T09:56:28.238Z,1010.59
2022-08-30T09:57:50.061Z,1010.6
2022-08-30T09:58:30.726Z,1010.57
2022-08-30T09:59:11.404Z,1010.55
2022-08-30T10:00:32.830Z,1010.56
2022-08-30T10:01:14.193Z,1010.57
2022-08-30T10:01:54.798Z,1010.56
2022-08-30T10:03:26.264Z,1010.57
2022-08-30T10:03:57.093Z,1010.61
2022-08-30T10:04:38.672Z,1010.54
2022-08-30T10:06:00.447Z,1010.56
2022-08-30T10:06:42.077Z,1010.5
2022-08-30T10:07:21.974Z,1010.52
2022-08-30T10:08:02.563Z,1010.48
2022-08-30T10:08:43.111Z,1010.52
2022-08-30T10:09:23.807Z,1010.51
2022-08-30T10:10:04.355Z,1010.5
2022-08-30T10:10:45.938Z,1010.5
2022-08-30T10:11:26.068Z,1010.49
2022-08-30T10:12:06.552Z,1010.49
2022-08-30T10:12:47.372Z,1010.47
2022-08-30T10:13:28.079Z,1010.54
2022-08-30T10:14:08.750Z,1010.48
2022-08-30T10:14:49.506Z,1010.5
2022-08-30T10:15:31.070Z,1010.46
2022-08-30T10:16:11.581Z,1010.49
2022-08-30T10:16:52.263Z,1010.47
2022-08-30T10:17:33.647Z,1010.4
2022-08-30T10:18:14.238Z,1010.42
2022-08-30T10:18:54.994Z,1010.39
2022-08-30T10:19:35.576Z,1010.43
2022-08-30T10:20:16.742Z,1010.4
2022-08-30T10:20:57.253Z,1010.4
2022-08-30T10:21:37.955Z,1010.38
2022-08-30T10:22:18.509Z,1010.39
2022-08-30T10:22:59.067Z,1010.38
2022-08-30T10:23:39.904Z,1010.37
2022-08-30T10:24:21.142Z,1010.38
2022-08-30T10:25:01.012Z,1010.37
2022-08-30T10:25:42.395Z,1010.37
2022-08-30T10:26:23.222Z,1010.37
2022-08-30T10:27:03.950Z,1010.36
2022-08-30T10:27:44.610Z,1010.35
2022-08-30T10:28:25.179Z,1010.39